createdAt,value
2023-03-23T15:58:15.628Z,3.03
2023-03-23T16:00:46.001Z,2.88
2023-03-23T16:03:18.020Z,2.75
2023-03-23T16:05:48.209Z,3.92
2023-03-23T16:08:17.119Z,3.60
2023-03-23T16:10:46.137Z,3.75
2023-03-23T16:13:14.911Z,3.50
2023-03-23T16:15:43.894Z,5.70
2023-03-23T16:18:19.760Z,4.32
2023-03-23T16:20:50.940Z,9.93
2023-03-23T16:23:19.773Z,2.75
2023-03-23T16:25:48.532Z,3.55
2023-03-23T16:28:18.131Z,5.20
2023-03-23T16:30:48.673Z,5.20
2023-03-23T16:33:17.640Z,4.00
2023-03-23T16:35:51.976Z,3.22
2023-03-23T16:38:20.732Z,4.95
2023-03-23T16:40:49.372Z,2.75
2023-03-23T16:43:18.394Z,6.50
2023-03-23T16:45:48.657Z,4.20
2023-03-23T16:49:10.412Z,5.13
2023-03-23T16:51:41.745Z,7.93
2023-03-23T16:54:11.562Z,4.82
2023-03-23T16:56:40.432Z,3.35
2023-03-23T16:59:09.403Z,6.60
2023-03-23T17:01:38.137Z,3.05
2023-03-23T17:04:07.129Z,4.68
2023-03-23T17:06:36.119Z,5.60
2023-03-23T17:09:06.569Z,8.00
2023-03-23T17:11:35.118Z,7.38
2023-03-23T17:14:03.919Z,5.35
2023-03-23T17:16:32.988Z,6.05
2023-03-23T17:19:01.649Z,7.30
2023-03-23T17:21:30.460Z,6.60
2023-03-23T17:24:01.110Z,4.07
2023-03-23T17:26:31.169Z,4.45
2023-03-23T17:28:59.687Z,5.95
2023-03-23T17:31:28.634Z,4.95
2023-03-23T17:33:57.863Z,7.28
2023-03-23T17:36:26.550Z,5.82
2023-03-23T17:43:32.653Z,7.20
2023-03-23T17:46:08.503Z,6.22
2023-03-23T17:48:42.534Z,8.18
2023-03-23T17:51:11.794Z,6.20
2023-03-23T17:53:40.826Z,8.23
2023-03-23T17:56:10.250Z,8.23
2023-03-23T17:58:40.533Z,7.32
2023-03-23T18:01:09.518Z,8.02
2023-03-23T18:03:38.505Z,10.38
2023-03-23T18:06:09.507Z,5.57
2023-03-23T18:08:38.898Z,5.82
2023-03-23T18:11:08.368Z,7.40
2023-03-23T18:13:39.648Z,8.18
2023-03-23T18:16:09.195Z,6.18
2023-03-23T18:18:38.958Z,9.45
2023-03-23T18:21:10.917Z,9.90
2023-03-23T18:23:49.469Z,10.23
2023-03-23T18:26:25.565Z,10.25
2023-03-23T18:29:01.225Z,11.32
2023-03-23T18:31:34.251Z,12.27
2023-03-23T18:34:03.223Z,8.82
2023-03-23T18:36:31.967Z,11.40
2023-03-23T18:39:00.610Z,12.38
2023-03-23T18:41:29.496Z,11.07
2023-03-23T18:43:59.425Z,7.95
2023-03-23T18:46:28.223Z,8.27
2023-03-23T18:48:56.960Z,11.63
2023-03-23T18:51:26.377Z,5.50
2023-03-23T18:53:55.241Z,5.83
2023-03-23T18:56:23.970Z,5.13
2023-03-23T18:58:53.456Z,5.60
2023-03-23T19:01:23.668Z,6.87
2023-03-23T19:04:22.460Z,6.57
2023-03-23T19:06:51.897Z,9.10
2023-03-23T19:09:20.862Z,13.43
2023-03-23T19:11:49.540Z,14.10
2023-03-23T19:14:19.568Z,13.10
2023-03-23T19:16:49.683Z,9.80
2023-03-23T19:19:19.451Z,10.77
2023-03-23T19:21:48.285Z,13.53
2023-03-23T19:24:17.160Z,10.73
2023-03-23T19:26:47.895Z,7.93
2023-03-23T19:29:26.528Z,11.37
2023-03-23T19:31:57.885Z,7.50
2023-03-23T19:34:41.350Z,7.80
2023-03-23T19:37:11.204Z,7.77
2023-03-23T19:39:42.537Z,10.70
2023-03-23T19:42:16.823Z,8.70
2023-03-23T19:44:45.829Z,9.23
2023-03-23T19:47:15.057Z,8.27
2023-03-23T19:49:45.732Z,10.70
2023-03-23T19:52:16.186Z,7.43
2023-03-23T19:54:46.638Z,8.47
2023-03-23T19:57:15.825Z,8.30
2023-03-23T19:59:44.660Z,9.40
2023-03-23T20:02:13.837Z,10.10
2023-03-23T20:04:43.548Z,8.50
2023-03-23T20:07:13.785Z,8.13
2023-03-23T20:09:42.731Z,7.73
2023-03-23T20:12:11.632Z,14.40
2023-03-23T20:14:45.075Z,12.40
2023-03-23T20:17:14.761Z,11.23
2023-03-23T20:19:43.568Z,8.27
2023-03-23T20:22:14.463Z,9.67
2023-03-23T20:24:45.318Z,8.90
2023-03-23T20:27:13.968Z,9.63
2023-03-23T20:29:43.058Z,11.80
2023-03-23T20:32:12.466Z,13.23
2023-03-23T20:34:41.380Z,9.67
2023-03-23T20:37:16.161Z,8.43
2023-03-23T20:39:52.207Z,9.67
2023-03-23T20:42:21.476Z,8.50
2023-03-23T20:44:50.183Z,9.87
2023-03-23T20:47:18.916Z,8.70
2023-03-23T20:49:52.770Z,8.70
2023-03-23T20:52:22.931Z,7.97
2023-03-23T20:54:56.205Z,10.53
2023-03-23T20:57:25.569Z,8.33
2023-03-23T20:59:55.514Z,10.47
2023-03-23T21:02:26.139Z,8.13
2023-03-23T21:04:54.835Z,8.37
2023-03-23T21:07:26.038Z,8.80
2023-03-23T21:09:56.427Z,13.30
2023-03-23T21:12:25.203Z,8.43
2023-03-23T21:14:53.858Z,10.00
2023-03-23T21:17:22.600Z,10.83
2023-03-23T21:19:51.374Z,10.83
2023-03-23T21:22:20.015Z,9.03
2023-03-23T21:24:50.559Z,8.90
2023-03-23T21:27:20.712Z,8.53
2023-03-23T21:29:50.865Z,9.23
2023-03-23T21:32:19.458Z,9.43
2023-03-23T21:34:48.088Z,9.77
2023-03-23T21:37:16.755Z,10.73
2023-03-23T21:39:46.027Z,10.30
2023-03-23T21:42:14.870Z,9.03
2023-03-23T21:44:45.080Z,7.47
2023-03-23T21:47:13.933Z,5.93
2023-03-23T21:49:46.081Z,8.23
2023-03-23T21:52:14.754Z,7.00
2023-03-23T21:54:43.550Z,8.70
2023-03-23T21:57:12.559Z,7.80
2023-03-23T21:59:41.269Z,8.63
2023-03-23T22:02:13.734Z,8.90
2023-03-23T22:04:42.701Z,6.10
2023-03-23T22:07:12.718Z,7.17
2023-03-23T22:09:45.297Z,7.03
2023-03-23T22:12:14.644Z,7.57
2023-03-23T22:14:43.367Z,7.10
2023-03-23T22:17:13.936Z,6.63
2023-03-23T22:19:42.808Z,7.53
2023-03-23T22:22:11.579Z,5.47
2023-03-23T22:24:40.630Z,6.77
2023-03-23T22:27:09.883Z,6.80
2023-03-23T22:29:38.687Z,7.80
2023-03-23T22:32:07.614Z,5.00
2023-03-23T22:34:37.932Z,7.47
2023-03-23T22:37:06.696Z,7.77
2023-03-23T22:39:36.022Z,6.67
2023-03-23T22:42:04.826Z,5.20
2023-03-23T22:44:33.840Z,8.87
2023-03-23T22:47:02.441Z,5.90
2023-03-23T22:49:31.049Z,5.03
2023-03-23T22:52:01.374Z,6.00
2023-03-23T22:54:30.328Z,6.27
2023-03-23T22:56:59.357Z,7.90
2023-03-23T22:59:28.183Z,5.90
2023-03-23T23:01:57.468Z,7.03
2023-03-23T23:04:26.515Z,6.00
2023-03-23T23:07:03.229Z,5.53
2023-03-23T23:09:40.579Z,5.57
2023-03-23T23:12:10.752Z,5.30
2023-03-23T23:14:40.029Z,7.83
2023-03-23T23:17:08.639Z,4.50
2023-03-23T23:19:38.121Z,5.83
2023-03-23T23:22:18.433Z,7.60
2023-03-23T23:24:49.119Z,7.57
2023-03-23T23:27:18.209Z,5.63
2023-03-23T23:29:47.268Z,5.67
2023-03-23T23:32:15.881Z,6.80
2023-03-23T23:34:44.672Z,7.88
2023-03-23T23:37:14.011Z,6.30
2023-03-23T23:39:43.021Z,6.20
2023-03-23T23:42:13.559Z,4.87
2023-03-23T23:44:43.429Z,5.13
2023-03-23T23:47:12.812Z,7.17
2023-03-23T23:49:41.479Z,6.87
2023-03-23T23:52:10.420Z,4.27
2023-03-23T23:54:42.612Z,6.90
2023-03-23T23:57:12.948Z,6.20
2023-03-23T23:59:42.064Z,4.83
